CheckWX is a tool to help pilots better visualize weather data.  It is not intended as a substitute for an official pre-flight weather briefing.

04:37:35 UTC

KSLC METAR
Salt Lake City International Airport
Salt Lake City, Utah, USA
Current

22 mins ago

KSLC 020416Z 35012KT 2SM -SN BR FEW017 OVC025 01/M01 A2985 RMK AO2 PK WND 33026/0406 CIG 018 NW RNWY P0000 T00111006
Observed
Apr-2 @ 04:16 UTC
Wind
  • 350° at 12 KTS
Visibility
2 SM
Flight Rules
IFR
Conditions
Light Snow, Mist
Cloud Levels
  • Few at 1,700' AGL
  • Overcast at 2,500' AGL
Temperature
C / 34°F
Dewpoint
-1°C / 30°F
Humidity
87%
Altimeter
29.85" Hg
Pressure
1010.82 hPa
Current Rain
0.01"
Previous

44 mins ago

KSLC 020354Z 35015KT 5SM -SN BR OVC026 02/01 A2984 RMK AO2 PK WND 34028/0331 RAE37SNB37 SLP097 P0000 T00170006
Observed
Apr-2 @ 03:54 UTC
Wind
  • 350° at 15 KTS
Visibility
5 SM
Flight Rules
MVFR
Conditions
Light Snow, Mist
Cloud Levels
  • Overcast at 2,600' AGL
Temperature
C / 36°F
Dewpoint
C / 34°F
Humidity
93%
Altimeter
29.84" Hg
Pressure
1010.52 hPa
Current Rain
0.01"
Previous

1 hour ago

KSLC 020334Z 34019G27KT 10SM -RA FEW015 BKN039 OVC055 03/M01 A2983 RMK AO2 PK WND 34028/0331 PRESRR P0000 T00331006
Observed
Apr-2 @ 03:34 UTC
Wind
  • 340° at 19 KTS
  • Gusting to 27 KTS
Visibility
10 SM
Flight Rules
VFR
Conditions
Light Rain
Cloud Levels
  • Few at 1,500' AGL
  • Broken at 3,900' AGL
  • Overcast at 5,500' AGL
Temperature
C / 37°F
Dewpoint
-1°C / 30°F
Humidity
75%
Altimeter
29.83" Hg
Pressure
1010.12 hPa
Current Rain
0.01"